createdAt,value
2023-04-23T00:00:24.990Z,8.47
2023-04-23T00:02:59.096Z,9.43
2023-04-23T00:05:33.379Z,9.73
2023-04-23T00:08:11.390Z,9.50
2023-04-23T00:10:44.733Z,9.50
2023-04-23T00:13:18.175Z,9.07
2023-04-23T00:15:52.116Z,9.03
2023-04-23T00:18:25.422Z,9.40
2023-04-23T00:20:58.619Z,8.67
2023-04-23T00:23:34.030Z,8.93
2023-04-23T00:26:07.378Z,10.23
2023-04-23T00:28:40.546Z,9.63
2023-04-23T00:31:13.833Z,9.90
2023-04-23T00:33:47.154Z,8.93
2023-04-23T00:36:20.141Z,9.57
2023-04-23T00:38:54.852Z,9.47
2023-04-23T00:41:28.657Z,9.27
2023-04-23T00:44:01.863Z,8.70
2023-04-23T00:46:35.135Z,8.50
2023-04-23T00:49:08.947Z,9.23
2023-04-23T00:51:42.048Z,9.43
2023-04-23T00:54:16.668Z,10.03
2023-04-23T00:56:49.624Z,9.43
2023-04-23T00:59:26.017Z,9.70
2023-04-23T01:01:59.328Z,9.60
2023-04-23T01:04:32.325Z,9.40
2023-04-23T01:07:06.083Z,9.37
2023-04-23T01:09:40.650Z,10.03
2023-04-23T01:12:15.178Z,9.67
2023-04-23T01:14:48.879Z,8.93
2023-04-23T01:17:23.059Z,8.40
2023-04-23T01:19:56.265Z,9.63
2023-04-23T01:22:30.688Z,10.00
2023-04-23T01:25:06.113Z,9.53
2023-04-23T01:27:39.356Z,9.40
2023-04-23T01:30:12.823Z,10.00
2023-04-23T01:32:46.268Z,9.10
2023-04-23T01:35:19.207Z,9.77
2023-04-23T01:37:57.227Z,10.13
2023-04-23T01:40:30.155Z,9.77
2023-04-23T01:43:03.346Z,10.03
2023-04-23T01:45:36.171Z,9.27
2023-04-23T01:48:09.653Z,9.83
2023-04-23T01:50:42.808Z,9.67
2023-04-23T01:53:19.098Z,10.00
2023-04-23T01:55:52.698Z,9.23
2023-04-23T01:58:25.995Z,9.70
2023-04-23T02:00:59.017Z,9.80
2023-04-23T02:03:35.197Z,9.63
2023-04-23T02:06:08.512Z,8.77
2023-04-23T02:08:42.744Z,9.40
2023-04-23T02:11:15.771Z,9.60
2023-04-23T02:13:48.841Z,10.37
2023-04-23T02:16:24.663Z,9.63
2023-04-23T02:18:57.619Z,10.83
2023-04-23T02:21:30.893Z,10.40
2023-04-23T02:24:06.165Z,10.60
2023-04-23T02:26:39.047Z,12.17
2023-04-23T02:29:11.897Z,11.50
2023-04-23T02:31:47.050Z,10.63
2023-04-23T02:34:20.361Z,11.53
2023-04-23T02:36:53.208Z,12.20
2023-04-23T02:39:27.521Z,11.47
2023-04-23T02:42:00.747Z,11.90
2023-04-23T02:44:33.810Z,12.43
2023-04-23T02:47:06.991Z,12.83
2023-04-23T02:49:40.522Z,12.23
2023-04-23T02:52:13.554Z,12.37
2023-04-23T02:54:48.453Z,12.73
2023-04-23T02:57:21.458Z,12.03
2023-04-23T02:59:55.009Z,13.17
2023-04-23T03:02:28.098Z,12.60
2023-04-23T03:05:01.126Z,12.87
2023-04-23T03:07:34.019Z,11.80
2023-04-23T03:10:09.613Z,12.13
2023-04-23T03:12:42.461Z,12.90
2023-04-23T03:15:15.977Z,11.83
2023-04-23T03:17:50.947Z,12.03
2023-04-23T03:20:23.979Z,12.43
2023-04-23T03:22:56.806Z,12.00
2023-04-23T03:25:31.150Z,11.93
2023-04-23T03:28:03.919Z,11.97
2023-04-23T03:30:36.787Z,10.87
2023-04-23T03:33:09.844Z,11.03
2023-04-23T03:35:42.926Z,11.37
2023-04-23T03:38:15.845Z,10.67
2023-04-23T03:40:50.158Z,10.60
2023-04-23T03:43:23.086Z,10.17
2023-04-23T03:45:56.211Z,10.60
2023-04-23T03:48:29.177Z,10.27
2023-04-23T03:51:02.149Z,11.03
2023-04-23T03:53:35.129Z,11.00
2023-04-23T03:56:09.827Z,10.40
2023-04-23T03:58:42.644Z,11.47
2023-04-23T04:01:15.605Z,10.93
2023-04-23T04:03:49.009Z,11.00
2023-04-23T04:06:22.294Z,10.80
2023-04-23T04:08:55.077Z,10.40
2023-04-23T04:11:29.223Z,9.80
2023-04-23T04:14:02.224Z,10.50
2023-04-23T04:16:35.198Z,9.53
2023-04-23T04:19:09.994Z,9.20
2023-04-23T04:21:43.128Z,9.30
2023-04-23T04:24:16.272Z,9.23
2023-04-23T04:26:52.663Z,9.40
2023-04-23T04:29:25.737Z,9.97
2023-04-23T04:32:02.601Z,10.57
2023-04-23T04:34:36.180Z,9.40
2023-04-23T04:37:10.882Z,9.27
2023-04-23T04:39:45.859Z,8.70
2023-04-23T04:42:20.316Z,8.80
2023-04-23T04:44:53.330Z,8.97
2023-04-23T04:47:26.457Z,9.27
2023-04-23T04:50:00.450Z,9.07
2023-04-23T04:52:33.501Z,8.53
2023-04-23T04:55:07.238Z,8.73
2023-04-23T04:57:41.492Z,7.63
2023-04-23T05:00:23.585Z,8.07
2023-04-23T05:02:56.881Z,8.07
2023-04-23T05:05:30.396Z,8.77
2023-04-23T05:08:03.294Z,9.57
2023-04-23T05:10:36.092Z,8.10
2023-04-23T05:13:10.501Z,8.87
2023-04-23T05:15:43.370Z,8.00
2023-04-23T05:18:16.294Z,8.67
2023-04-23T05:20:49.239Z,8.37
2023-04-23T05:23:22.234Z,7.90
2023-04-23T05:25:56.746Z,8.20
2023-04-23T05:28:31.450Z,8.27
2023-04-23T05:31:04.362Z,7.90
2023-04-23T05:33:48.706Z,8.50
2023-04-23T05:36:23.135Z,7.67
2023-04-23T05:38:56.129Z,8.00
2023-04-23T05:41:29.238Z,7.57
2023-04-23T05:44:03.621Z,7.97
2023-04-23T05:46:36.787Z,7.40
2023-04-23T05:49:09.778Z,7.20
2023-04-23T05:51:43.515Z,6.90
2023-04-23T05:54:17.602Z,7.60
2023-04-23T05:56:51.483Z,7.27
2023-04-23T05:59:26.595Z,7.40
2023-04-23T06:01:59.544Z,7.50
2023-04-23T06:04:32.698Z,7.30
2023-04-23T06:07:05.815Z,7.80
2023-04-23T06:09:38.804Z,6.50
2023-04-23T06:12:12.082Z,7.13
2023-04-23T06:14:46.475Z,6.57
2023-04-23T06:17:19.297Z,6.57
2023-04-23T06:19:52.411Z,7.23
2023-04-23T06:22:25.372Z,7.10
2023-04-23T06:24:58.208Z,7.13
2023-04-23T06:27:32.614Z,7.30
2023-04-23T06:30:08.031Z,8.23
2023-04-23T06:32:40.876Z,7.03
2023-04-23T06:35:13.788Z,7.57
2023-04-23T06:37:46.702Z,6.70
2023-04-23T06:40:19.677Z,7.20
2023-04-23T06:42:55.673Z,7.43
2023-04-23T06:45:33.406Z,6.57
2023-04-23T06:48:08.370Z,6.40
2023-04-23T06:50:41.312Z,6.63
2023-04-23T06:53:14.246Z,7.00
2023-04-23T06:55:51.609Z,7.00
2023-04-23T06:58:30.979Z,6.10
2023-04-23T07:01:05.378Z,6.40
2023-04-23T07:03:38.305Z,6.17
2023-04-23T07:06:11.221Z,6.77
2023-04-23T07:08:44.949Z,6.20
2023-04-23T07:11:18.254Z,6.00
2023-04-23T07:13:51.140Z,6.63
2023-04-23T07:16:25.975Z,6.40
2023-04-23T07:18:58.856Z,6.97
2023-04-23T07:21:33.185Z,6.27
2023-04-23T07:24:07.289Z,6.40
2023-04-23T07:26:40.487Z,6.83
2023-04-23T07:29:14.326Z,6.97
2023-04-23T07:31:49.381Z,6.93
2023-04-23T07:34:22.221Z,7.40
2023-04-23T07:36:56.439Z,6.90
2023-04-23T07:39:29.458Z,6.73
2023-04-23T07:42:02.494Z,7.13
2023-04-23T07:44:35.486Z,7.33
2023-04-23T07:47:09.858Z,7.77
2023-04-23T07:49:43.147Z,8.70
2023-04-23T07:52:17.337Z,8.77
2023-04-23T07:54:50.304Z,9.77
2023-04-23T07:57:23.090Z,8.87
2023-04-23T07:59:56.114Z,8.83
2023-04-23T08:02:30.851Z,8.73
2023-04-23T08:05:03.763Z,8.63
2023-04-23T08:07:36.790Z,8.73
2023-04-23T08:10:10.086Z,9.30
2023-04-23T08:12:43.124Z,9.30
2023-04-23T08:15:16.262Z,9.20
2023-04-23T08:17:50.778Z,9.73
2023-04-23T08:20:23.873Z,9.90
2023-04-23T08:22:57.295Z,10.03
2023-04-23T08:25:30.027Z,10.03
2023-04-23T08:28:05.347Z,10.03
2023-04-23T08:30:38.485Z,10.73
2023-04-23T08:33:13.064Z,9.73
2023-04-23T08:35:46.256Z,9.40
2023-04-23T08:38:19.104Z,10.00
2023-04-23T08:40:56.973Z,9.33
2023-04-23T08:43:32.948Z,9.53
2023-04-23T08:46:05.845Z,10.13
2023-04-23T08:48:41.262Z,9.90
2023-04-23T08:51:19.118Z,9.37
2023-04-23T08:53:53.450Z,9.70
2023-04-23T08:56:26.908Z,9.70
2023-04-23T08:58:59.936Z,8.70
2023-04-23T09:01:32.820Z,9.30
2023-04-23T09:04:10.212Z,9.63
2023-04-23T09:06:43.042Z,9.50
2023-04-23T09:09:16.907Z,9.70
2023-04-23T09:11:49.781Z,9.93
2023-04-23T09:14:24.899Z,10.07
2023-04-23T09:16:57.934Z,9.30
2023-04-23T09:19:32.810Z,9.57
2023-04-23T09:22:06.028Z,9.33
2023-04-23T09:24:38.948Z,8.43
2023-04-23T09:27:12.568Z,8.87
2023-04-23T09:29:46.056Z,8.80
2023-04-23T09:32:19.315Z,10.30
2023-04-23T09:34:57.551Z,9.40
2023-04-23T09:37:30.755Z,5.73
2023-04-23T09:40:05.129Z,5.70
2023-04-23T09:42:38.491Z,5.90
2023-04-23T09:45:15.229Z,4.63
2023-04-23T09:47:51.993Z,4.83
2023-04-23T09:50:34.646Z,4.30
2023-04-23T09:53:08.456Z,4.47
2023-04-23T09:55:45.539Z,4.73
2023-04-23T09:58:18.295Z,4.60
2023-04-23T10:00:51.239Z,4.67
2023-04-23T10:03:28.169Z,4.77
2023-04-23T10:06:03.184Z,4.50
2023-04-23T10:08:36.495Z,4.70
2023-04-23T10:11:20.007Z,6.00
2023-04-23T10:13:54.692Z,4.17
2023-04-23T10:16:32.996Z,4.63
2023-04-23T10:19:15.608Z,3.90
2023-04-23T10:21:56.205Z,4.40
2023-04-23T10:24:33.980Z,4.50
2023-04-23T10:27:30.839Z,4.30
2023-04-23T10:30:13.402Z,4.40
2023-04-23T10:32:47.189Z,3.73
2023-04-23T10:35:20.255Z,3.93
2023-04-23T10:37:54.681Z,4.13
2023-04-23T10:40:30.163Z,5.37
2023-04-23T10:43:03.018Z,6.10
2023-04-23T10:45:35.849Z,7.00
2023-04-23T10:48:10.110Z,6.50
2023-04-23T10:51:02.504Z,6.70
2023-04-23T10:53:38.908Z,6.80
2023-04-23T10:56:11.934Z,8.10
2023-04-23T10:58:54.660Z,7.27
2023-04-23T11:01:29.088Z,7.40
2023-04-23T11:04:20.492Z,7.53
2023-04-23T11:06:58.502Z,7.83
2023-04-23T11:09:33.934Z,7.83
2023-04-23T11:12:11.585Z,7.93
2023-04-23T11:14:47.406Z,8.30
2023-04-23T11:17:23.211Z,8.37
2023-04-23T11:20:10.410Z,9.20
2023-04-23T11:22:47.605Z,8.57
2023-04-23T11:25:22.764Z,8.90
2023-04-23T11:27:56.733Z,9.87
2023-04-23T11:30:33.350Z,9.47
2023-04-23T11:33:06.556Z,9.47
2023-04-23T11:35:41.706Z,9.43
2023-04-23T11:38:15.105Z,9.23
2023-04-23T11:40:53.440Z,10.10
2023-04-23T11:43:29.205Z,10.23
2023-04-23T11:46:02.370Z,10.10
2023-04-23T11:48:36.649Z,9.70
2023-04-23T11:51:09.853Z,10.03
2023-04-23T11:53:45.873Z,9.27
2023-04-23T11:56:21.058Z,8.83
2023-04-23T11:58:59.884Z,9.43
2023-04-23T12:01:43.721Z,9.70
2023-04-23T12:04:17.494Z,9.43
2023-04-23T12:06:51.130Z,8.50
2023-04-23T12:09:25.317Z,8.27
2023-04-23T12:12:00.465Z,7.63
2023-04-23T12:14:33.720Z,6.43
2023-04-23T12:17:12.803Z,6.43
2023-04-23T12:19:46.075Z,6.63
2023-04-23T12:22:27.414Z,6.23
2023-04-23T12:25:05.144Z,7.30
2023-04-23T12:27:42.693Z,6.80
2023-04-23T12:30:15.820Z,7.03
2023-04-23T12:32:49.025Z,5.90
2023-04-23T12:35:22.677Z,4.77
2023-04-23T12:37:59.097Z,6.97
2023-04-23T12:40:32.085Z,6.10
2023-04-23T12:43:09.169Z,5.17
2023-04-23T12:45:42.316Z,5.00
2023-04-23T12:48:15.269Z,4.10
2023-04-23T12:50:49.504Z,3.47
2023-04-23T12:53:22.477Z,3.40
2023-04-23T12:55:55.226Z,5.07
2023-04-23T12:58:31.074Z,5.10
2023-04-23T13:01:04.110Z,4.77
2023-04-23T13:03:40.970Z,5.93
2023-04-23T13:06:16.526Z,5.83
2023-04-23T13:08:49.599Z,5.00
2023-04-23T13:11:23.106Z,4.60
2023-04-23T13:13:59.010Z,4.83
2023-04-23T13:16:32.336Z,4.33
2023-04-23T13:19:05.681Z,4.60
2023-04-23T13:21:39.544Z,5.00
2023-04-23T13:24:13.106Z,4.30
2023-04-23T13:26:46.776Z,4.67
2023-04-23T13:29:21.116Z,5.10
2023-04-23T13:31:54.653Z,4.43
2023-04-23T13:34:28.108Z,4.33
2023-04-23T13:37:05.399Z,3.73
2023-04-23T13:39:41.878Z,3.80
2023-04-23T13:42:15.222Z,3.77
2023-04-23T13:44:49.604Z,4.07
2023-04-23T13:47:22.724Z,3.20
2023-04-23T13:49:56.885Z,3.03
2023-04-23T13:52:31.833Z,2.90
2023-04-23T13:55:05.162Z,2.90
2023-04-23T13:57:38.538Z,2.83
2023-04-23T14:00:13.965Z,2.67
2023-04-23T14:02:46.998Z,2.83
2023-04-23T14:05:20.341Z,2.63
2023-04-23T14:07:53.437Z,2.60
2023-04-23T14:10:26.866Z,3.53
2023-04-23T14:13:00.043Z,2.83
2023-04-23T14:15:37.554Z,3.20
2023-04-23T14:18:10.815Z,2.23
2023-04-23T14:20:43.791Z,2.40
2023-04-23T14:23:44.054Z,2.63
2023-04-23T14:26:29.566Z,2.53
2023-04-23T14:29:11.516Z,2.20
2023-04-23T14:31:46.242Z,1.97
2023-04-23T14:34:19.721Z,2.07
2023-04-23T14:36:53.361Z,1.80
2023-04-23T14:39:26.905Z,2.00
2023-04-23T14:41:59.851Z,1.80
2023-04-23T14:44:32.788Z,2.00
2023-04-23T14:47:08.299Z,2.23
2023-04-23T14:49:43.045Z,2.20
2023-04-23T14:52:16.357Z,2.10
2023-04-23T14:54:49.340Z,2.20
2023-04-23T14:57:22.940Z,2.00
2023-04-23T14:59:56.494Z,1.93
2023-04-23T15:02:31.978Z,2.00
2023-04-23T15:05:08.761Z,2.10
2023-04-23T15:07:46.828Z,1.73
2023-04-23T15:10:22.492Z,1.87
2023-04-23T15:13:02.598Z,1.47
2023-04-23T15:15:44.460Z,1.50
2023-04-23T15:18:19.835Z,2.07
2023-04-23T15:20:52.712Z,2.00
2023-04-23T15:23:27.649Z,1.70
2023-04-23T15:26:00.718Z,2.00
2023-04-23T15:28:33.764Z,1.70
2023-04-23T15:31:13.584Z,1.60
2023-04-23T15:33:48.393Z,1.87
2023-04-23T15:36:21.265Z,2.37
2023-04-23T15:38:56.098Z,1.80
2023-04-23T15:41:33.884Z,1.50
2023-04-23T15:44:09.026Z,1.83
2023-04-23T15:46:42.089Z,1.53
2023-04-23T15:49:16.357Z,1.43
2023-04-23T15:51:49.945Z,1.97
2023-04-23T15:54:25.026Z,3.10
2023-04-23T15:56:58.041Z,2.33
2023-04-23T15:59:31.650Z,2.90
2023-04-23T16:02:06.972Z,2.60
2023-04-23T16:04:42.288Z,1.90
2023-04-23T16:07:16.190Z,1.93
2023-04-23T16:09:49.163Z,2.30
2023-04-23T16:12:22.226Z,2.67
2023-04-23T16:14:55.471Z,2.57
2023-04-23T16:17:29.761Z,2.00
2023-04-23T16:20:04.887Z,1.53
2023-04-23T16:22:37.663Z,1.80
2023-04-23T16:25:10.968Z,1.80
2023-04-23T16:27:45.108Z,1.80
2023-04-23T16:30:18.133Z,1.50
2023-04-23T16:32:51.603Z,1.70
2023-04-23T16:35:26.028Z,1.70
2023-04-23T16:37:59.022Z,1.47
2023-04-23T16:40:34.468Z,1.50
2023-04-23T16:43:08.717Z,1.50
2023-04-23T16:45:41.596Z,1.70
2023-04-23T16:48:16.711Z,1.40
2023-04-23T16:50:51.338Z,1.87
2023-04-23T16:53:24.446Z,1.70
2023-04-23T16:55:57.490Z,1.90
2023-04-23T16:58:32.562Z,2.10
2023-04-23T17:01:05.433Z,1.70
2023-04-23T17:03:39.529Z,2.23
2023-04-23T17:06:21.601Z,1.80
2023-04-23T17:08:55.308Z,1.90
2023-04-23T17:11:29.401Z,2.00
2023-04-23T17:14:02.471Z,1.90
2023-04-23T17:16:35.368Z,1.93
2023-04-23T17:19:08.606Z,2.33
2023-04-23T17:21:43.246Z,2.20
2023-04-23T17:24:16.020Z,2.20
2023-04-23T17:26:49.189Z,2.23
2023-04-23T17:29:22.231Z,2.13
2023-04-23T17:31:55.431Z,2.10
2023-04-23T17:34:28.824Z,2.50
2023-04-23T17:37:06.040Z,2.30
2023-04-23T17:39:39.449Z,1.60
2023-04-23T17:42:13.628Z,1.90
2023-04-23T17:44:46.655Z,1.80
2023-04-23T17:47:19.670Z,2.23
2023-04-23T17:49:52.727Z,2.10
2023-04-23T17:52:27.957Z,1.80
2023-04-23T17:55:02.361Z,2.30
2023-04-23T17:57:35.306Z,2.30
2023-04-23T18:00:13.372Z,2.10
2023-04-23T18:02:46.588Z,2.40
2023-04-23T18:05:19.905Z,2.10
2023-04-23T18:07:54.616Z,2.00
2023-04-23T18:10:37.927Z,2.53
2023-04-23T18:13:11.766Z,2.70
2023-04-23T18:15:49.420Z,3.00
2023-04-23T18:18:22.847Z,3.00
2023-04-23T18:20:55.759Z,2.93
2023-04-23T18:23:31.220Z,2.90
2023-04-23T18:26:04.325Z,3.33
2023-04-23T18:28:37.366Z,3.67
2023-04-23T18:31:10.562Z,3.60
2023-04-23T18:33:48.810Z,3.83
2023-04-23T18:36:25.003Z,4.60
2023-04-23T18:38:59.364Z,4.37
2023-04-23T18:41:32.655Z,4.23
2023-04-23T18:44:05.537Z,4.50
2023-04-23T18:46:42.910Z,4.70
2023-04-23T18:49:38.604Z,4.73
2023-04-23T18:52:11.946Z,4.47
2023-04-23T18:54:49.093Z,4.63
2023-04-23T18:57:22.269Z,4.50
2023-04-23T18:59:55.666Z,4.60
2023-04-23T19:05:08.095Z,4.80
2023-04-23T19:07:42.762Z,4.80
2023-04-23T19:10:17.832Z,4.63
2023-04-23T19:12:51.428Z,5.63
2023-04-23T19:15:24.947Z,5.13
2023-04-23T19:17:58.049Z,5.40
2023-04-23T19:20:31.197Z,4.87
2023-04-23T19:23:05.022Z,5.23
2023-04-23T19:25:41.747Z,4.93
2023-04-23T19:28:14.836Z,5.40
2023-04-23T19:30:48.333Z,5.33
2023-04-23T19:33:21.367Z,5.40
2023-04-23T19:35:54.273Z,5.30
2023-04-23T19:38:27.025Z,5.40
2023-04-23T19:41:01.272Z,5.60
2023-04-23T19:43:34.472Z,5.93
2023-04-23T19:46:08.164Z,5.77
2023-04-23T19:48:41.404Z,6.07
2023-04-23T19:51:17.519Z,6.03
2023-04-23T19:53:50.673Z,6.03
2023-04-23T19:56:25.165Z,6.33
2023-04-23T19:59:01.646Z,6.03
2023-04-23T20:01:34.601Z,6.43
2023-04-23T20:04:08.436Z,6.80
2023-04-23T20:06:41.865Z,6.20
2023-04-23T20:09:19.134Z,6.77
2023-04-23T20:11:53.795Z,6.40
2023-04-23T20:14:26.648Z,7.20
2023-04-23T20:17:00.095Z,7.13
2023-04-23T20:19:33.270Z,6.70
2023-04-23T20:22:06.875Z,7.63
2023-04-23T20:24:40.316Z,7.47
2023-04-23T20:27:14.639Z,8.00
2023-04-23T20:29:48.322Z,7.20
2023-04-23T20:32:21.275Z,7.07
2023-04-23T20:34:54.365Z,7.20
2023-04-23T20:37:28.564Z,7.53
2023-04-23T20:40:01.379Z,7.50
2023-04-23T20:42:39.102Z,8.10
2023-04-23T20:45:14.391Z,7.67
2023-04-23T20:47:48.363Z,8.23
2023-04-23T20:50:21.739Z,7.10
2023-04-23T20:52:54.926Z,7.93
2023-04-23T20:55:28.131Z,8.27
2023-04-23T20:58:02.357Z,7.73
2023-04-23T21:00:36.927Z,8.07
2023-04-23T21:03:09.905Z,7.53
2023-04-23T21:05:44.697Z,7.63
2023-04-23T21:08:17.552Z,7.70
2023-04-23T21:10:53.536Z,8.33
2023-04-23T21:13:27.903Z,8.40
2023-04-23T21:16:00.852Z,8.57
2023-04-23T21:18:34.046Z,8.20
2023-04-23T21:21:07.950Z,8.67
2023-04-23T21:23:41.567Z,8.43
2023-04-23T21:26:15.252Z,8.63
2023-04-23T21:28:49.923Z,8.67
2023-04-23T21:31:30.808Z,8.63
2023-04-23T21:34:03.736Z,8.13
2023-04-23T21:36:36.791Z,7.33
2023-04-23T21:39:13.322Z,8.03
2023-04-23T21:41:49.139Z,7.33
2023-04-23T21:44:23.983Z,7.90
2023-04-23T21:46:56.870Z,7.00
2023-04-23T21:49:29.725Z,6.77
2023-04-23T21:52:02.639Z,6.67
2023-04-23T21:54:35.488Z,6.30
2023-04-23T21:57:08.289Z,7.20
2023-04-23T21:59:43.755Z,7.10
2023-04-23T22:02:17.565Z,6.87
2023-04-23T22:04:50.772Z,6.93
2023-04-23T22:07:23.944Z,6.33
2023-04-23T22:10:00.104Z,6.87
2023-04-23T22:12:32.870Z,7.00
2023-04-23T22:15:08.875Z,6.80
2023-04-23T22:17:43.389Z,6.53
2023-04-23T22:20:18.485Z,6.20
2023-04-23T22:22:52.481Z,6.57
2023-04-23T22:25:25.605Z,6.07
2023-04-23T22:27:59.014Z,6.37
2023-04-23T22:30:33.364Z,5.67
2023-04-23T22:33:06.452Z,5.80
2023-04-23T22:35:39.452Z,5.50
2023-04-23T22:38:12.436Z,5.40
2023-04-23T22:40:45.406Z,4.93
2023-04-23T22:43:18.338Z,4.87
2023-04-23T22:45:52.523Z,4.80
2023-04-23T22:48:25.548Z,5.10
2023-04-23T22:50:59.335Z,5.13
2023-04-23T22:53:32.189Z,5.37
2023-04-23T22:56:07.998Z,5.20
2023-04-23T22:58:41.007Z,4.57
2023-04-23T23:01:15.510Z,5.17
2023-04-23T23:03:48.661Z,5.70
2023-04-23T23:06:22.067Z,4.93
2023-04-23T23:08:55.561Z,5.00
2023-04-23T23:11:29.348Z,4.90
2023-04-23T23:14:02.214Z,5.00
2023-04-23T23:16:36.875Z,4.90
2023-04-23T23:19:09.784Z,5.00
2023-04-23T23:21:42.639Z,4.90
2023-04-23T23:24:16.578Z,5.17
2023-04-23T23:26:49.537Z,5.47
2023-04-23T23:29:22.361Z,4.73
2023-04-23T23:31:57.710Z,4.90
2023-04-23T23:34:30.676Z,4.47
2023-04-23T23:37:03.543Z,4.20
2023-04-23T23:39:36.406Z,4.93
2023-04-23T23:42:09.382Z,5.03
2023-04-23T23:44:42.221Z,5.03
2023-04-23T23:47:16.553Z,4.90
2023-04-23T23:49:49.414Z,4.53
2023-04-23T23:52:22.700Z,5.07
2023-04-23T23:54:55.677Z,4.90
2023-04-23T23:57:32.084Z,4.80
